sensor_id;sensor_type;location;lat;lon;timestamp;P1;durP1;ratioP1;P2;durP2;ratioP2
16189;SDS011;41754;51.498;7.540;2023-07-16T00:01:49;3.75;;;1.88;;
16189;SDS011;41754;51.498;7.540;2023-07-16T00:04:17;1.77;;;1.50;;
16189;SDS011;41754;51.498;7.540;2023-07-16T00:06:46;3.63;;;1.80;;
16189;SDS011;41754;51.498;7.540;2023-07-16T00:09:14;3.97;;;1.80;;
16189;SDS011;41754;51.498;7.540;2023-07-16T00:11:42;17.90;;;5.53;;
16189;SDS011;41754;51.498;7.540;2023-07-16T00:14:10;3.67;;;1.70;;
16189;SDS011;41754;51.498;7.540;2023-07-16T00:16:38;2.47;;;1.67;;
16189;SDS011;41754;51.498;7.540;2023-07-16T00:19:06;3.90;;;2.30;;
16189;SDS011;41754;51.498;7.540;2023-07-16T00:21:34;5.68;;;1.95;;
16189;SDS011;41754;51.498;7.540;2023-07-16T00:24:05;3.72;;;2.00;;
16189;SDS011;41754;51.498;7.540;2023-07-16T00:26:33;2.63;;;1.60;;
16189;SDS011;41754;51.498;7.540;2023-07-16T00:29:01;3.92;;;1.90;;
16189;SDS011;41754;51.498;7.540;2023-07-16T00:31:29;22.95;;;5.88;;
16189;SDS011;41754;51.498;7.540;2023-07-16T00:33:57;4.45;;;2.15;;
16189;SDS011;41754;51.498;7.540;2023-07-16T00:36:25;6.78;;;2.42;;
16189;SDS011;41754;51.498;7.540;2023-07-16T00:38:53;1.90;;;1.70;;
16189;SDS011;41754;51.498;7.540;2023-07-16T00:41:22;4.50;;;1.95;;
16189;SDS011;41754;51.498;7.540;2023-07-16T00:43:50;4.15;;;1.60;;
16189;SDS011;41754;51.498;7.540;2023-07-16T00:46:19;4.85;;;1.35;;
16189;SDS011;41754;51.498;7.540;2023-07-16T00:48:47;5.88;;;2.08;;
16189;SDS011;41754;51.498;7.540;2023-07-16T00:51:15;2.97;;;1.80;;
16189;SDS011;41754;51.498;7.540;2023-07-16T00:53:43;2.35;;;1.65;;
16189;SDS011;41754;51.498;7.540;2023-07-16T00:56:12;4.80;;;2.15;;
16189;SDS011;41754;51.498;7.540;2023-07-16T00:58:45;5.43;;;1.50;;
16189;SDS011;41754;51.498;7.540;2023-07-16T01:01:13;3.78;;;1.83;;
16189;SDS011;41754;51.498;7.540;2023-07-16T01:03:41;2.78;;;1.48;;
16189;SDS011;41754;51.498;7.540;2023-07-16T01:06:10;3.75;;;1.80;;
16189;SDS011;41754;51.498;7.540;2023-07-16T01:08:45;3.25;;;1.88;;
16189;SDS011;41754;51.498;7.540;2023-07-16T01:11:16;3.63;;;1.63;;
16189;SDS011;41754;51.498;7.540;2023-07-16T01:13:47;6.18;;;2.25;;
16189;SDS011;41754;51.498;7.540;2023-07-16T01:16:19;2.92;;;1.60;;
16189;SDS011;41754;51.498;7.540;2023-07-16T01:18:49;4.07;;;1.80;;
16189;SDS011;41754;51.498;7.540;2023-07-16T01:21:18;3.20;;;1.55;;
16189;SDS011;41754;51.498;7.540;2023-07-16T01:24:00;4.45;;;1.80;;
16189;SDS011;41754;51.498;7.540;2023-07-16T01:26:51;4.18;;;1.65;;
16189;SDS011;41754;51.498;7.540;2023-07-16T01:29:44;3.30;;;1.90;;
16189;SDS011;41754;51.498;7.540;2023-07-16T01:32:17;4.85;;;1.75;;
16189;SDS011;41754;51.498;7.540;2023-07-16T01:34:47;4.68;;;1.95;;
16189;SDS011;41754;51.498;7.540;2023-07-16T01:37:15;3.45;;;1.73;;
16189;SDS011;41754;51.498;7.540;2023-07-16T01:39:43;3.17;;;1.92;;
16189;SDS011;41754;51.498;7.540;2023-07-16T01:42:11;2.75;;;1.60;;
16189;SDS011;41754;51.498;7.540;2023-07-16T01:44:40;3.53;;;1.73;;
16189;SDS011;41754;51.498;7.540;2023-07-16T01:47:09;3.67;;;1.80;;
16189;SDS011;41754;51.498;7.540;2023-07-16T01:49:39;5.45;;;1.80;;
16189;SDS011;41754;51.498;7.540;2023-07-16T01:52:08;2.65;;;1.67;;
16189;SDS011;41754;51.498;7.540;2023-07-16T01:54:36;2.67;;;1.88;;
16189;SDS011;41754;51.498;7.540;2023-07-16T01:57:04;9.00;;;2.95;;
16189;SDS011;41754;51.498;7.540;2023-07-16T01:59:32;5.95;;;2.45;;
16189;SDS011;41754;51.498;7.540;2023-07-16T02:02:00;3.85;;;2.03;;
16189;SDS011;41754;51.498;7.540;2023-07-16T02:04:30;7.68;;;3.10;;
16189;SDS011;41754;51.498;7.540;2023-07-16T02:06:58;4.40;;;2.15;;
16189;SDS011;41754;51.498;7.540;2023-07-16T02:09:26;2.47;;;1.50;;
16189;SDS011;41754;51.498;7.540;2023-07-16T02:11:54;2.30;;;1.75;;
16189;SDS011;41754;51.498;7.540;2023-07-16T02:14:22;6.18;;;1.98;;
16189;SDS011;41754;51.498;7.540;2023-07-16T02:16:50;5.20;;;1.75;;
16189;SDS011;41754;51.498;7.540;2023-07-16T02:19:19;3.75;;;1.70;;
16189;SDS011;41754;51.498;7.540;2023-07-16T02:21:48;3.10;;;1.60;;
16189;SDS011;41754;51.498;7.540;2023-07-16T02:24:16;2.70;;;1.50;;
16189;SDS011;41754;51.498;7.540;2023-07-16T02:26:44;4.82;;;2.10;;
16189;SDS011;41754;51.498;7.540;2023-07-16T02:29:12;2.40;;;1.50;;
16189;SDS011;41754;51.498;7.540;2023-07-16T02:31:39;5.18;;;1.98;;
16189;SDS011;41754;51.498;7.540;2023-07-16T02:34:10;4.38;;;1.80;;
16189;SDS011;41754;51.498;7.540;2023-07-16T02:36:38;4.50;;;1.83;;
16189;SDS011;41754;51.498;7.540;2023-07-16T02:39:07;4.85;;;1.80;;
16189;SDS011;41754;51.498;7.540;2023-07-16T02:41:35;3.95;;;1.70;;
16189;SDS011;41754;51.498;7.540;2023-07-16T02:44:03;3.63;;;1.65;;
16189;SDS011;41754;51.498;7.540;2023-07-16T02:46:32;4.65;;;1.88;;
16189;SDS011;41754;51.498;7.540;2023-07-16T02:49:01;4.07;;;1.90;;
16189;SDS011;41754;51.498;7.540;2023-07-16T02:51:30;5.07;;;2.08;;
16189;SDS011;41754;51.498;7.540;2023-07-16T02:53:58;4.65;;;2.22;;
16189;SDS011;41754;51.498;7.540;2023-07-16T02:56:28;4.88;;;1.92;;
16189;SDS011;41754;51.498;7.540;2023-07-16T02:58:56;1.88;;;1.65;;
16189;SDS011;41754;51.498;7.540;2023-07-16T03:01:24;3.28;;;2.03;;
16189;SDS011;41754;51.498;7.540;2023-07-16T03:03:52;2.70;;;1.70;;
16189;SDS011;41754;51.498;7.540;2023-07-16T03:06:22;3.85;;;2.20;;
16189;SDS011;41754;51.498;7.540;2023-07-16T03:08:50;3.92;;;1.95;;
16189;SDS011;41754;51.498;7.540;2023-07-16T03:11:18;3.65;;;1.85;;
16189;SDS011;41754;51.498;7.540;2023-07-16T03:13:48;4.95;;;1.73;;
16189;SDS011;41754;51.498;7.540;2023-07-16T03:16:16;5.07;;;2.03;;
16189;SDS011;41754;51.498;7.540;2023-07-16T03:18:45;3.45;;;2.25;;
16189;SDS011;41754;51.498;7.540;2023-07-16T03:21:13;4.68;;;2.00;;
16189;SDS011;41754;51.498;7.540;2023-07-16T03:23:41;5.13;;;1.77;;
16189;SDS011;41754;51.498;7.540;2023-07-16T03:26:09;5.13;;;2.00;;
16189;SDS011;41754;51.498;7.540;2023-07-16T03:28:37;2.78;;;1.83;;
16189;SDS011;41754;51.498;7.540;2023-07-16T03:31:09;3.42;;;2.00;;
16189;SDS011;41754;51.498;7.540;2023-07-16T03:33:39;4.05;;;1.80;;
16189;SDS011;41754;51.498;7.540;2023-07-16T03:36:07;6.25;;;1.77;;
16189;SDS011;41754;51.498;7.540;2023-07-16T03:38:35;3.97;;;1.95;;
16189;SDS011;41754;51.498;7.540;2023-07-16T03:41:03;4.75;;;1.90;;
16189;SDS011;41754;51.498;7.540;2023-07-16T03:43:32;5.15;;;2.17;;
16189;SDS011;41754;51.498;7.540;2023-07-16T03:46:13;3.63;;;1.80;;
16189;SDS011;41754;51.498;7.540;2023-07-16T03:48:41;4.35;;;1.55;;
16189;SDS011;41754;51.498;7.540;2023-07-16T03:51:10;4.10;;;1.70;;
16189;SDS011;41754;51.498;7.540;2023-07-16T03:53:38;3.83;;;1.80;;
16189;SDS011;41754;51.498;7.540;2023-07-16T03:56:06;4.60;;;1.40;;
16189;SDS011;41754;51.498;7.540;2023-07-16T03:58:34;3.75;;;1.67;;
16189;SDS011;41754;51.498;7.540;2023-07-16T04:01:04;2.35;;;1.42;;
16189;SDS011;41754;51.498;7.540;2023-07-16T04:03:34;3.13;;;1.55;;
16189;SDS011;41754;51.498;7.540;2023-07-16T04:06:04;5.22;;;1.73;;
16189;SDS011;41754;51.498;7.540;2023-07-16T04:08:35;4.05;;;1.83;;
16189;SDS011;41754;51.498;7.540;2023-07-16T04:11:04;4.68;;;2.15;;
16189;SDS011;41754;51.498;7.540;2023-07-16T04:13:32;6.13;;;2.00;;
16189;SDS011;41754;51.498;7.540;2023-07-16T04:16:00;4.80;;;2.00;;
16189;SDS011;41754;51.498;7.540;2023-07-16T04:18:28;3.88;;;2.05;;
16189;SDS011;41754;51.498;7.540;2023-07-16T04:20:57;4.10;;;2.15;;
16189;SDS011;41754;51.498;7.540;2023-07-16T04:23:25;4.40;;;2.10;;
16189;SDS011;41754;51.498;7.540;2023-07-16T04:25:54;6.57;;;2.10;;
16189;SDS011;41754;51.498;7.540;2023-07-16T04:28:23;6.72;;;2.85;;
16189;SDS011;41754;51.498;7.540;2023-07-16T04:30:50;4.97;;;1.67;;
16189;SDS011;41754;51.498;7.540;2023-07-16T04:33:18;3.28;;;2.15;;
16189;SDS011;41754;51.498;7.540;2023-07-16T04:35:46;4.43;;;2.00;;
16189;SDS011;41754;51.498;7.540;2023-07-16T04:38:15;5.10;;;1.90;;
16189;SDS011;41754;51.498;7.540;2023-07-16T04:40:44;3.63;;;1.95;;
16189;SDS011;41754;51.498;7.540;2023-07-16T04:43:12;4.20;;;1.80;;
16189;SDS011;41754;51.498;7.540;2023-07-16T04:45:40;4.25;;;2.33;;
16189;SDS011;41754;51.498;7.540;2023-07-16T04:48:07;4.63;;;2.17;;
16189;SDS011;41754;51.498;7.540;2023-07-16T04:50:35;4.25;;;1.90;;
16189;SDS011;41754;51.498;7.540;2023-07-16T04:53:03;4.70;;;1.88;;
16189;SDS011;41754;51.498;7.540;2023-07-16T04:55:35;6.35;;;2.08;;
16189;SDS011;41754;51.498;7.540;2023-07-16T04:58:04;2.90;;;2.22;;
16189;SDS011;41754;51.498;7.540;2023-07-16T05:00:32;3.80;;;1.98;;
16189;SDS011;41754;51.498;7.540;2023-07-16T05:03:00;7.60;;;2.30;;
16189;SDS011;41754;51.498;7.540;2023-07-16T05:05:28;5.35;;;2.35;;
16189;SDS011;41754;51.498;7.540;2023-07-16T05:07:56;4.47;;;2.50;;
16189;SDS011;41754;51.498;7.540;2023-07-16T05:10:24;5.25;;;2.15;;
16189;SDS011;41754;51.498;7.540;2023-07-16T05:12:53;5.18;;;2.60;;
16189;SDS011;41754;51.498;7.540;2023-07-16T05:15:21;3.60;;;2.40;;
16189;SDS011;41754;51.498;7.540;2023-07-16T05:17:49;4.32;;;2.10;;
16189;SDS011;41754;51.498;7.540;2023-07-16T05:20:17;5.68;;;2.00;;
16189;SDS011;41754;51.498;7.540;2023-07-16T05:22:47;5.05;;;2.22;;
16189;SDS011;41754;51.498;7.540;2023-07-16T05:25:15;6.15;;;2.67;;
16189;SDS011;41754;51.498;7.540;2023-07-16T05:27:43;6.15;;;2.60;;
16189;SDS011;41754;51.498;7.540;2023-07-16T05:30:12;3.63;;;2.17;;
16189;SDS011;41754;51.498;7.540;2023-07-16T05:32:40;5.63;;;2.53;;
16189;SDS011;41754;51.498;7.540;2023-07-16T05:35:08;6.88;;;2.30;;
16189;SDS011;41754;51.498;7.540;2023-07-16T05:37:36;6.05;;;2.63;;
16189;SDS011;41754;51.498;7.540;2023-07-16T05:40:05;5.75;;;2.58;;
16189;SDS011;41754;51.498;7.540;2023-07-16T05:42:35;4.88;;;2.67;;
16189;SDS011;41754;51.498;7.540;2023-07-16T05:45:03;5.53;;;2.58;;
16189;SDS011;41754;51.498;7.540;2023-07-16T05:47:33;5.50;;;2.38;;
16189;SDS011;41754;51.498;7.540;2023-07-16T05:50:01;5.20;;;2.17;;
16189;SDS011;41754;51.498;7.540;2023-07-16T05:52:29;4.90;;;2.45;;
16189;SDS011;41754;51.498;7.540;2023-07-16T05:54:58;7.38;;;2.55;;
16189;SDS011;41754;51.498;7.540;2023-07-16T05:57:26;5.07;;;2.50;;
16189;SDS011;41754;51.498;7.540;2023-07-16T05:59:53;5.60;;;2.55;;
16189;SDS011;41754;51.498;7.540;2023-07-16T06:02:22;6.35;;;2.30;;
16189;SDS011;41754;51.498;7.540;2023-07-16T06:04:51;4.65;;;2.53;;
16189;SDS011;41754;51.498;7.540;2023-07-16T06:07:19;4.72;;;2.95;;
16189;SDS011;41754;51.498;7.540;2023-07-16T06:09:47;5.15;;;2.58;;
16189;SDS011;41754;51.498;7.540;2023-07-16T06:12:14;5.72;;;3.08;;
16189;SDS011;41754;51.498;7.540;2023-07-16T06:14:42;9.63;;;3.17;;
16189;SDS011;41754;51.498;7.540;2023-07-16T06:17:10;4.72;;;2.70;;
16189;SDS011;41754;51.498;7.540;2023-07-16T06:19:38;7.47;;;2.80;;
16189;SDS011;41754;51.498;7.540;2023-07-16T06:22:07;6.28;;;3.00;;
16189;SDS011;41754;51.498;7.540;2023-07-16T06:24:35;7.93;;;3.20;;
16189;SDS011;41754;51.498;7.540;2023-07-16T06:27:03;8.40;;;3.85;;
16189;SDS011;41754;51.498;7.540;2023-07-16T06:29:32;5.20;;;3.00;;
16189;SDS011;41754;51.498;7.540;2023-07-16T06:31:59;5.82;;;3.58;;
16189;SDS011;41754;51.498;7.540;2023-07-16T06:34:29;5.10;;;3.00;;
16189;SDS011;41754;51.498;7.540;2023-07-16T06:36:57;9.43;;;3.60;;
16189;SDS011;41754;51.498;7.540;2023-07-16T06:39:26;7.35;;;3.05;;
16189;SDS011;41754;51.498;7.540;2023-07-16T06:41:54;8.65;;;3.47;;
16189;SDS011;41754;51.498;7.540;2023-07-16T06:44:22;7.72;;;3.55;;
16189;SDS011;41754;51.498;7.540;2023-07-16T06:46:50;5.43;;;3.33;;
16189;SDS011;41754;51.498;7.540;2023-07-16T06:49:18;8.98;;;3.67;;
16189;SDS011;41754;51.498;7.540;2023-07-16T06:51:46;9.50;;;3.90;;
16189;SDS011;41754;51.498;7.540;2023-07-16T06:54:14;6.68;;;3.65;;
16189;SDS011;41754;51.498;7.540;2023-07-16T06:56:44;8.45;;;3.50;;
16189;SDS011;41754;51.498;7.540;2023-07-16T06:59:12;7.85;;;4.22;;
16189;SDS011;41754;51.498;7.540;2023-07-16T07:01:39;9.07;;;3.72;;
16189;SDS011;41754;51.498;7.540;2023-07-16T07:04:07;8.52;;;3.90;;
16189;SDS011;41754;51.498;7.540;2023-07-16T07:06:35;7.65;;;3.75;;
16189;SDS011;41754;51.498;7.540;2023-07-16T07:09:03;4.88;;;3.78;;
16189;SDS011;41754;51.498;7.540;2023-07-16T07:11:31;6.03;;;3.70;;
16189;SDS011;41754;51.498;7.540;2023-07-16T07:14:01;6.32;;;3.67;;
16189;SDS011;41754;51.498;7.540;2023-07-16T07:16:29;7.20;;;3.78;;
16189;SDS011;41754;51.498;7.540;2023-07-16T07:18:57;6.05;;;3.45;;
16189;SDS011;41754;51.498;7.540;2023-07-16T07:21:25;5.68;;;3.75;;
16189;SDS011;41754;51.498;7.540;2023-07-16T07:23:53;8.13;;;3.92;;
16189;SDS011;41754;51.498;7.540;2023-07-16T07:26:21;8.38;;;3.95;;
16189;SDS011;41754;51.498;7.540;2023-07-16T07:28:48;6.00;;;3.70;;
16189;SDS011;41754;51.498;7.540;2023-07-16T07:31:18;7.05;;;4.05;;
16189;SDS011;41754;51.498;7.540;2023-07-16T07:33:46;8.55;;;3.95;;
16189;SDS011;41754;51.498;7.540;2023-07-16T07:36:14;7.90;;;3.60;;
16189;SDS011;41754;51.498;7.540;2023-07-16T07:38:42;7.63;;;3.78;;
16189;SDS011;41754;51.498;7.540;2023-07-16T07:41:10;8.48;;;4.05;;
16189;SDS011;41754;51.498;7.540;2023-07-16T07:43:38;6.03;;;3.60;;
16189;SDS011;41754;51.498;7.540;2023-07-16T07:46:06;5.40;;;3.78;;
16189;SDS011;41754;51.498;7.540;2023-07-16T07:48:36;5.50;;;3.75;;
16189;SDS011;41754;51.498;7.540;2023-07-16T07:51:04;7.45;;;3.78;;
16189;SDS011;41754;51.498;7.540;2023-07-16T07:53:32;4.68;;;3.67;;
16189;SDS011;41754;51.498;7.540;2023-07-16T07:55:59;5.10;;;3.95;;
16189;SDS011;41754;51.498;7.540;2023-07-16T07:58:27;5.78;;;3.80;;
16189;SDS011;41754;51.498;7.540;2023-07-16T08:00:55;7.55;;;3.90;;
16189;SDS011;41754;51.498;7.540;2023-07-16T08:03:23;6.13;;;3.20;;
16189;SDS011;41754;51.498;7.540;2023-07-16T08:05:52;6.65;;;4.25;;
16189;SDS011;41754;51.498;7.540;2023-07-16T08:08:20;8.68;;;4.30;;
16189;SDS011;41754;51.498;7.540;2023-07-16T08:10:48;7.07;;;4.00;;
16189;SDS011;41754;51.498;7.540;2023-07-16T08:13:16;6.63;;;4.20;;
16189;SDS011;41754;51.498;7.540;2023-07-16T08:15:44;5.80;;;4.03;;
16189;SDS011;41754;51.498;7.540;2023-07-16T08:18:14;9.52;;;4.50;;
16189;SDS011;41754;51.498;7.540;2023-07-16T08:20:42;5.47;;;3.25;;
16189;SDS011;41754;51.498;7.540;2023-07-16T08:23:11;6.30;;;3.97;;
16189;SDS011;41754;51.498;7.540;2023-07-16T08:25:40;7.45;;;3.90;;
16189;SDS011;41754;51.498;7.540;2023-07-16T08:28:07;6.30;;;3.55;;
16189;SDS011;41754;51.498;7.540;2023-07-16T08:30:36;7.55;;;4.28;;
16189;SDS011;41754;51.498;7.540;2023-07-16T08:33:04;7.38;;;4.00;;
16189;SDS011;41754;51.498;7.540;2023-07-16T08:35:32;6.50;;;3.80;;
16189;SDS011;41754;51.498;7.540;2023-07-16T08:38:00;5.72;;;3.55;;
16189;SDS011;41754;51.498;7.540;2023-07-16T08:40:30;4.75;;;3.03;;
16189;SDS011;41754;51.498;7.540;2023-07-16T08:42:58;5.75;;;3.72;;
16189;SDS011;41754;51.498;7.540;2023-07-16T08:45:26;5.70;;;3.65;;
16189;SDS011;41754;51.498;7.540;2023-07-16T08:47:56;7.10;;;3.50;;
16189;SDS011;41754;51.498;7.540;2023-07-16T08:50:25;5.35;;;3.45;;
16189;SDS011;41754;51.498;7.540;2023-07-16T08:52:57;8.18;;;3.65;;
16189;SDS011;41754;51.498;7.540;2023-07-16T08:55:26;5.03;;;3.53;;
16189;SDS011;41754;51.498;7.540;2023-07-16T08:57:55;6.32;;;3.60;;
16189;SDS011;41754;51.498;7.540;2023-07-16T09:00:24;4.90;;;3.25;;
16189;SDS011;41754;51.498;7.540;2023-07-16T09:02:54;5.05;;;3.35;;
16189;SDS011;41754;51.498;7.540;2023-07-16T09:05:22;5.50;;;3.40;;
16189;SDS011;41754;51.498;7.540;2023-07-16T09:08:05;6.25;;;3.90;;
16189;SDS011;41754;51.498;7.540;2023-07-16T09:10:34;7.28;;;3.67;;
16189;SDS011;41754;51.498;7.540;2023-07-16T09:13:03;6.15;;;3.20;;
16189;SDS011;41754;51.498;7.540;2023-07-16T09:15:31;5.43;;;3.53;;
16189;SDS011;41754;51.498;7.540;2023-07-16T09:18:00;4.78;;;3.20;;
16189;SDS011;41754;51.498;7.540;2023-07-16T09:20:29;5.68;;;3.50;;
16189;SDS011;41754;51.498;7.540;2023-07-16T09:22:57;6.53;;;3.95;;
16189;SDS011;41754;51.498;7.540;2023-07-16T09:25:26;5.38;;;3.80;;
16189;SDS011;41754;51.498;7.540;2023-07-16T09:27:54;6.43;;;3.20;;
16189;SDS011;41754;51.498;7.540;2023-07-16T09:30:24;4.93;;;3.28;;
16189;SDS011;41754;51.498;7.540;2023-07-16T09:32:52;4.72;;;3.35;;
16189;SDS011;41754;51.498;7.540;2023-07-16T09:35:20;6.30;;;3.80;;
16189;SDS011;41754;51.498;7.540;2023-07-16T09:37:48;6.15;;;3.47;;
16189;SDS011;41754;51.498;7.540;2023-07-16T09:40:17;6.13;;;3.50;;
16189;SDS011;41754;51.498;7.540;2023-07-16T09:42:45;7.55;;;3.88;;
16189;SDS011;41754;51.498;7.540;2023-07-16T09:45:16;4.53;;;3.30;;
16189;SDS011;41754;51.498;7.540;2023-07-16T09:47:46;5.10;;;3.35;;
16189;SDS011;41754;51.498;7.540;2023-07-16T09:50:15;6.20;;;3.42;;
16189;SDS011;41754;51.498;7.540;2023-07-16T09:52:43;5.50;;;3.78;;
16189;SDS011;41754;51.498;7.540;2023-07-16T09:55:12;3.65;;;2.83;;
16189;SDS011;41754;51.498;7.540;2023-07-16T09:57:42;4.22;;;2.88;;
16189;SDS011;41754;51.498;7.540;2023-07-16T10:00:11;5.30;;;3.05;;
16189;SDS011;41754;51.498;7.540;2023-07-16T10:02:44;4.38;;;3.20;;
16189;SDS011;41754;51.498;7.540;2023-07-16T10:05:14;5.82;;;3.28;;
16189;SDS011;41754;51.498;7.540;2023-07-16T10:07:49;5.07;;;3.63;;
16189;SDS011;41754;51.498;7.540;2023-07-16T10:10:19;4.22;;;3.00;;
16189;SDS011;41754;51.498;7.540;2023-07-16T10:13:01;4.43;;;3.47;;
16189;SDS011;41754;51.498;7.540;2023-07-16T10:15:30;3.22;;;2.92;;
16189;SDS011;41754;51.498;7.540;2023-07-16T10:17:58;5.75;;;2.92;;
16189;SDS011;41754;51.498;7.540;2023-07-16T10:20:31;4.22;;;3.10;;
16189;SDS011;41754;51.498;7.540;2023-07-16T10:23:09;4.90;;;2.70;;
16189;SDS011;41754;51.498;7.540;2023-07-16T10:25:39;4.32;;;3.10;;
16189;SDS011;41754;51.498;7.540;2023-07-16T10:28:07;4.97;;;2.88;;
16189;SDS011;41754;51.498;7.540;2023-07-16T10:30:35;4.03;;;3.33;;
16189;SDS011;41754;51.498;7.540;2023-07-16T10:33:03;6.68;;;3.63;;
16189;SDS011;41754;51.498;7.540;2023-07-16T10:35:42;5.90;;;3.30;;
16189;SDS011;41754;51.498;7.540;2023-07-16T10:38:10;6.40;;;3.60;;
16189;SDS011;41754;51.498;7.540;2023-07-16T10:40:43;3.83;;;3.15;;
16189;SDS011;41754;51.498;7.540;2023-07-16T10:43:12;5.93;;;3.65;;
16189;SDS011;41754;51.498;7.540;2023-07-16T10:45:40;3.40;;;3.08;;
16189;SDS011;41754;51.498;7.540;2023-07-16T10:48:08;5.85;;;3.33;;
16189;SDS011;41754;51.498;7.540;2023-07-16T10:50:36;5.60;;;3.50;;
16189;SDS011;41754;51.498;7.540;2023-07-16T10:53:06;4.80;;;3.58;;
16189;SDS011;41754;51.498;7.540;2023-07-16T10:55:34;5.80;;;3.60;;
16189;SDS011;41754;51.498;7.540;2023-07-16T10:58:04;5.22;;;3.40;;
16189;SDS011;41754;51.498;7.540;2023-07-16T11:00:36;4.18;;;3.00;;
16189;SDS011;41754;51.498;7.540;2023-07-16T11:03:05;4.72;;;3.40;;
16189;SDS011;41754;51.498;7.540;2023-07-16T11:05:34;5.05;;;3.33;;
16189;SDS011;41754;51.498;7.540;2023-07-16T11:08:02;4.25;;;3.13;;
16189;SDS011;41754;51.498;7.540;2023-07-16T11:10:32;4.60;;;3.10;;
16189;SDS011;41754;51.498;7.540;2023-07-16T11:13:00;4.60;;;3.20;;
16189;SDS011;41754;51.498;7.540;2023-07-16T11:15:31;4.18;;;2.88;;
16189;SDS011;41754;51.498;7.540;2023-07-16T11:18:00;4.88;;;3.40;;
16189;SDS011;41754;51.498;7.540;2023-07-16T11:20:28;3.25;;;2.58;;
16189;SDS011;41754;51.498;7.540;2023-07-16T11:22:58;4.68;;;2.60;;
16189;SDS011;41754;51.498;7.540;2023-07-16T11:25:28;4.55;;;2.85;;
16189;SDS011;41754;51.498;7.540;2023-07-16T11:27:57;3.92;;;2.90;;
16189;SDS011;41754;51.498;7.540;2023-07-16T11:30:25;5.22;;;3.22;;
16189;SDS011;41754;51.498;7.540;2023-07-16T11:32:54;4.20;;;2.90;;
16189;SDS011;41754;51.498;7.540;2023-07-16T11:35:22;3.38;;;3.00;;
16189;SDS011;41754;51.498;7.540;2023-07-16T11:37:50;3.30;;;2.97;;
16189;SDS011;41754;51.498;7.540;2023-07-16T11:40:19;3.92;;;2.83;;
16189;SDS011;41754;51.498;7.540;2023-07-16T11:42:48;4.90;;;2.67;;
16189;SDS011;41754;51.498;7.540;2023-07-16T11:45:18;3.75;;;2.33;;
16189;SDS011;41754;51.498;7.540;2023-07-16T11:47:49;5.13;;;2.60;;
16189;SDS011;41754;51.498;7.540;2023-07-16T11:50:17;3.22;;;2.20;;
16189;SDS011;41754;51.498;7.540;2023-07-16T11:52:51;3.10;;;2.35;;
16189;SDS011;41754;51.498;7.540;2023-07-16T11:55:20;4.30;;;2.70;;
16189;SDS011;41754;51.498;7.540;2023-07-16T11:57:48;3.25;;;2.60;;
16189;SDS011;41754;51.498;7.540;2023-07-16T12:00:16;3.45;;;2.33;;
16189;SDS011;41754;51.498;7.540;2023-07-16T12:02:45;6.45;;;2.83;;
16189;SDS011;41754;51.498;7.540;2023-07-16T12:05:18;4.43;;;2.67;;
16189;SDS011;41754;51.498;7.540;2023-07-16T12:07:59;6.00;;;3.53;;
16189;SDS011;41754;51.498;7.540;2023-07-16T12:10:27;4.43;;;3.03;;
16189;SDS011;41754;51.498;7.540;2023-07-16T12:12:55;4.93;;;2.78;;
16189;SDS011;41754;51.498;7.540;2023-07-16T12:15:24;4.85;;;2.75;;
16189;SDS011;41754;51.498;7.540;2023-07-16T12:17:52;4.53;;;2.85;;
16189;SDS011;41754;51.498;7.540;2023-07-16T12:20:20;3.42;;;2.70;;
16189;SDS011;41754;51.498;7.540;2023-07-16T12:22:48;5.30;;;2.50;;
16189;SDS011;41754;51.498;7.540;2023-07-16T12:25:16;3.85;;;2.60;;
16189;SDS011;41754;51.498;7.540;2023-07-16T12:27:46;3.40;;;2.90;;
16189;SDS011;41754;51.498;7.540;2023-07-16T12:30:14;3.55;;;2.88;;
16189;SDS011;41754;51.498;7.540;2023-07-16T12:32:43;3.47;;;2.92;;
16189;SDS011;41754;51.498;7.540;2023-07-16T12:35:11;5.07;;;3.20;;
16189;SDS011;41754;51.498;7.540;2023-07-16T12:37:40;3.72;;;3.00;;
16189;SDS011;41754;51.498;7.540;2023-07-16T12:40:08;4.13;;;2.90;;
16189;SDS011;41754;51.498;7.540;2023-07-16T12:42:36;4.45;;;2.72;;
16189;SDS011;41754;51.498;7.540;2023-07-16T12:45:05;5.07;;;3.05;;
16189;SDS011;41754;51.498;7.540;2023-07-16T12:47:34;4.85;;;3.15;;
16189;SDS011;41754;51.498;7.540;2023-07-16T12:50:03;4.68;;;2.97;;
16189;SDS011;41754;51.498;7.540;2023-07-16T12:52:32;6.03;;;3.28;;
16189;SDS011;41754;51.498;7.540;2023-07-16T12:55:00;5.07;;;3.15;;
16189;SDS011;41754;51.498;7.540;2023-07-16T12:57:28;4.43;;;2.88;;
16189;SDS011;41754;51.498;7.540;2023-07-16T12:59:55;4.25;;;2.72;;
16189;SDS011;41754;51.498;7.540;2023-07-16T13:02:23;4.18;;;3.00;;
16189;SDS011;41754;51.498;7.540;2023-07-16T13:04:51;4.72;;;2.63;;
16189;SDS011;41754;51.498;7.540;2023-07-16T13:07:20;5.55;;;3.17;;
16189;SDS011;41754;51.498;7.540;2023-07-16T13:09:48;7.32;;;3.00;;
16189;SDS011;41754;51.498;7.540;2023-07-16T13:12:29;3.20;;;2.88;;
16189;SDS011;41754;51.498;7.540;2023-07-16T13:14:57;7.88;;;2.90;;
16189;SDS011;41754;51.498;7.540;2023-07-16T13:17:25;4.68;;;3.00;;
16189;SDS011;41754;51.498;7.540;2023-07-16T13:19:53;7.32;;;2.67;;
16189;SDS011;41754;51.498;7.540;2023-07-16T13:22:22;4.18;;;2.65;;
16189;SDS011;41754;51.498;7.540;2023-07-16T13:24:50;6.30;;;2.90;;
16189;SDS011;41754;51.498;7.540;2023-07-16T13:27:21;3.75;;;2.63;;
16189;SDS011;41754;51.498;7.540;2023-07-16T13:29:50;3.88;;;2.53;;
16189;SDS011;41754;51.498;7.540;2023-07-16T13:32:18;2.75;;;2.53;;
16189;SDS011;41754;51.498;7.540;2023-07-16T13:34:46;2.92;;;2.50;;
16189;SDS011;41754;51.498;7.540;2023-07-16T13:37:14;6.07;;;3.10;;
16189;SDS011;41754;51.498;7.540;2023-07-16T13:39:43;4.65;;;2.55;;
16189;SDS011;41754;51.498;7.540;2023-07-16T13:42:11;4.90;;;2.80;;
16189;SDS011;41754;51.498;7.540;2023-07-16T13:44:49;5.38;;;2.90;;
16189;SDS011;41754;51.498;7.540;2023-07-16T13:47:17;3.10;;;2.80;;
16189;SDS011;41754;51.498;7.540;2023-07-16T13:49:44;4.60;;;2.85;;
16189;SDS011;41754;51.498;7.540;2023-07-16T13:52:12;3.95;;;3.13;;
16189;SDS011;41754;51.498;7.540;2023-07-16T13:54:40;3.70;;;2.67;;
16189;SDS011;41754;51.498;7.540;2023-07-16T13:57:09;5.30;;;3.47;;
16189;SDS011;41754;51.498;7.540;2023-07-16T13:59:37;3.42;;;3.00;;
16189;SDS011;41754;51.498;7.540;2023-07-16T14:02:05;5.90;;;3.33;;
16189;SDS011;41754;51.498;7.540;2023-07-16T14:04:33;6.40;;;3.30;;
16189;SDS011;41754;51.498;7.540;2023-07-16T14:07:01;4.82;;;3.03;;
16189;SDS011;41754;51.498;7.540;2023-07-16T14:09:30;3.45;;;3.10;;
16189;SDS011;41754;51.498;7.540;2023-07-16T14:11:57;4.45;;;3.83;;
16189;SDS011;41754;51.498;7.540;2023-07-16T14:14:27;4.32;;;3.45;;
16189;SDS011;41754;51.498;7.540;2023-07-16T14:16:55;4.35;;;3.05;;
16189;SDS011;41754;51.498;7.540;2023-07-16T14:19:23;4.28;;;3.17;;
16189;SDS011;41754;51.498;7.540;2023-07-16T14:21:51;4.03;;;3.10;;
16189;SDS011;41754;51.498;7.540;2023-07-16T14:24:18;5.53;;;2.95;;
16189;SDS011;41754;51.498;7.540;2023-07-16T14:26:46;4.82;;;2.88;;
16189;SDS011;41754;51.498;7.540;2023-07-16T14:29:15;4.25;;;2.78;;
16189;SDS011;41754;51.498;7.540;2023-07-16T14:31:44;5.25;;;3.38;;
16189;SDS011;41754;51.498;7.540;2023-07-16T14:34:12;5.20;;;3.30;;
16189;SDS011;41754;51.498;7.540;2023-07-16T14:36:40;4.30;;;2.92;;
16189;SDS011;41754;51.498;7.540;2023-07-16T14:39:09;4.28;;;3.00;;
16189;SDS011;41754;51.498;7.540;2023-07-16T14:41:37;3.10;;;2.80;;
16189;SDS011;41754;51.498;7.540;2023-07-16T14:44:05;4.50;;;2.90;;
16189;SDS011;41754;51.498;7.540;2023-07-16T14:46:33;4.55;;;2.70;;
16189;SDS011;41754;51.498;7.540;2023-07-16T14:49:02;3.53;;;3.08;;
16189;SDS011;41754;51.498;7.540;2023-07-16T14:51:30;4.75;;;2.47;;
16189;SDS011;41754;51.498;7.540;2023-07-16T14:53:58;3.67;;;2.83;;
16189;SDS011;41754;51.498;7.540;2023-07-16T14:56:26;3.25;;;2.92;;
16189;SDS011;41754;51.498;7.540;2023-07-16T14:58:54;4.45;;;2.90;;